Time;durP1;ratioP1;P1;durP2;ratioP2;P2;SDS_P1;SDS_P2;PMS_P1;PMS_P2;Temp;Humidity;BMP_temperature;BMP_pressure;BME280_temperature;BME280_humidity;BME280_pressure;Samples;Min_cycle;Max_cycle;Signal;HPM_P1;HPM_P2
2023/03/09 00:01:31;;;;;;;13.70;10.37;;;2.20;99.90;;;;;;5056870;28;20207;-69
2023/03/09 00:03:58;;;;;;;12.20;10.30;;;2.20;99.90;;;;;;5058315;28;20283;-71
2023/03/09 00:06:24;;;;;;;15.33;9.83;;;2.20;99.90;;;;;;5064865;28;20561;-69
2023/03/09 00:08:50;;;;;;;13.93;11.03;;;2.20;99.90;;;;;;5060564;28;20265;-72
2023/03/09 00:11:16;;;;;;;16.63;10.63;;;2.20;99.90;;;;;;5060879;28;20201;-70
2023/03/09 00:13:43;;;;;;;13.57;10.17;;;2.30;99.90;;;;;;5060949;28;20239;-71
2023/03/09 00:16:17;;;;;;;13.27;10.57;;;2.30;99.90;;;;;;5060109;28;20711;-72
2023/03/09 00:18:43;;;;;;;15.30;10.30;;;2.30;99.90;;;;;;5055809;28;20232;-70
2023/03/09 00:21:34;;;;;;;12.37;9.73;;;2.30;99.90;;;;;;5052966;28;20303;-69
2023/03/09 00:24:20;;;;;;;13.17;10.80;;;2.30;99.90;;;;;;5061343;28;20598;-72
2023/03/09 00:26:55;;;;;;;12.37;9.50;;;2.20;99.90;;;;;;5059746;28;20212;-72
2023/03/09 00:29:22;;;;;;;13.50;10.73;;;2.20;99.90;;;;;;5060099;28;20201;-70
2023/03/09 00:31:47;;;;;;;16.03;11.83;;;2.20;99.90;;;;;;5058104;28;20251;-69
2023/03/09 00:34:15;;;;;;;15.70;11.37;;;2.20;99.90;;;;;;5054983;28;20197;-71
2023/03/09 00:36:41;;;;;;;16.83;12.80;;;2.20;99.90;;;;;;5055317;28;20567;-70
2023/03/09 00:39:07;;;;;;;19.80;13.83;;;2.20;99.90;;;;;;5056609;28;20229;-70
2023/03/09 00:41:33;;;;;;;18.07;12.90;;;2.10;99.90;;;;;;5058947;28;20233;-71
2023/03/09 00:44:00;;;;;;;19.47;13.33;;;2.10;99.90;;;;;;5058647;28;20200;-69
2023/03/09 00:46:26;;;;;;;19.83;14.50;;;2.10;99.90;;;;;;5059143;28;20204;-68
2023/03/09 00:48:52;;;;;;;18.70;13.27;;;2.20;99.90;;;;;;5058621;28;20205;-69
2023/03/09 00:51:17;;;;;;;17.57;12.83;;;2.10;99.90;;;;;;5060909;28;20557;-68
2023/03/09 00:53:43;;;;;;;17.60;13.07;;;2.10;99.90;;;;;;5067639;28;20763;-68
2023/03/09 00:56:14;;;;;;;15.80;12.03;;;2.10;99.90;;;;;;5064045;28;20194;-68
2023/03/09 00:58:40;;;;;;;22.07;13.23;;;2.10;99.90;;;;;;5067223;28;20205;-68
2023/03/09 01:01:10;;;;;;;17.70;12.50;;;2.10;99.90;;;;;;5062299;28;20282;-69
2023/03/09 01:03:37;;;;;;;16.87;12.17;;;2.10;99.90;;;;;;5067433;28;20668;-68
2023/03/09 01:06:03;;;;;;;19.43;14.77;;;2.10;99.90;;;;;;5064379;28;20284;-72
2023/03/09 01:08:28;;;;;;;17.57;13.33;;;2.00;99.90;;;;;;5062722;28;20273;-70
2023/03/09 01:10:54;;;;;;;18.37;12.50;;;2.00;99.90;;;;;;5063947;28;20216;-70
2023/03/09 01:13:19;;;;;;;16.43;12.60;;;2.10;99.90;;;;;;5064310;28;20256;-69
2023/03/09 01:15:45;;;;;;;20.60;14.13;;;2.10;99.90;;;;;;5061398;28;20190;-70
2023/03/09 01:18:11;;;;;;;18.50;13.40;;;2.00;99.90;;;;;;5058506;28;20305;-70
2023/03/09 01:20:36;;;;;;;17.97;12.13;;;2.00;99.90;;;;;;5067263;28;20204;-68
2023/03/09 01:23:02;;;;;;;16.97;12.60;;;2.00;99.90;;;;;;5061304;28;20700;-69
2023/03/09 01:25:28;;;;;;;15.43;12.10;;;2.00;99.90;;;;;;5060047;28;20209;-67
2023/03/09 01:27:53;;;;;;;18.47;13.53;;;2.00;99.90;;;;;;5051914;28;20256;-69
2023/03/09 01:30:19;;;;;;;17.60;13.27;;;2.00;99.90;;;;;;5053712;28;20723;-69
2023/03/09 01:32:44;;;;;;;18.17;13.40;;;2.00;99.90;;;;;;5053031;28;20334;-69
2023/03/09 01:35:10;;;;;;;18.83;13.13;;;2.10;99.90;;;;;;5052775;28;20193;-71
2023/03/09 01:37:35;;;;;;;18.27;13.77;;;2.00;99.90;;;;;;5053644;28;20209;-69
2023/03/09 01:40:05;;;;;;;19.67;13.87;;;1.90;99.90;;;;;;5053416;28;20202;-69
2023/03/09 01:42:30;;;;;;;18.47;13.77;;;1.90;99.90;;;;;;5053777;28;20332;-70
2023/03/09 01:45:18;;;;;;;19.90;13.33;;;1.90;99.90;;;;;;5056630;28;20197;-70
2023/03/09 01:47:45;;;;;;;19.87;13.13;;;1.90;99.90;;;;;;5054163;28;20202;-66
2023/03/09 01:50:11;;;;;;;19.77;14.53;;;2.00;99.90;;;;;;5057411;28;20224;-66
2023/03/09 01:52:37;;;;;;;21.27;13.93;;;1.90;99.90;;;;;;5055862;28;20206;-66
2023/03/09 01:55:05;;;;;;;19.87;13.87;;;1.90;99.90;;;;;;5057877;28;20193;-63
2023/03/09 01:57:42;;;;;;;20.63;15.20;;;1.90;99.90;;;;;;5057803;28;20208;-63
2023/03/09 02:00:12;;;;;;;25.33;15.57;;;1.80;99.90;;;;;;5055829;28;20216;-64
2023/03/09 02:02:40;;;;;;;18.93;14.27;;;1.80;99.90;;;;;;5057982;28;20698;-62
2023/03/09 02:05:09;;;;;;;22.87;15.10;;;1.80;99.90;;;;;;5055589;28;20292;-61
2023/03/09 02:07:38;;;;;;;22.27;14.83;;;1.80;99.90;;;;;;5055586;28;20676;-63
2023/03/09 02:10:10;;;;;;;19.53;15.87;;;1.80;99.90;;;;;;5055318;28;20220;-64
2023/03/09 02:12:37;;;;;;;19.50;15.00;;;1.80;99.90;;;;;;5057394;28;20206;-66
2023/03/09 02:15:04;;;;;;;23.60;16.27;;;1.80;99.90;;;;;;5032742;28;20205;-62
2023/03/09 02:17:29;;;;;;;23.07;15.93;;;1.80;99.90;;;;;;5055976;28;20220;-67
2023/03/09 02:20:11;;;;;;;21.77;14.90;;;1.70;99.90;;;;;;5055067;28;20198;-64
2023/03/09 02:22:38;;;;;;;23.57;15.20;;;1.70;99.90;;;;;;5054748;28;20747;-64
2023/03/09 02:25:06;;;;;;;21.20;14.50;;;1.70;99.90;;;;;;5056065;28;20262;-65
2023/03/09 02:27:33;;;;;;;22.83;15.87;;;1.70;99.90;;;;;;5057377;28;20219;-64
2023/03/09 02:29:59;;;;;;;24.37;15.13;;;1.70;99.90;;;;;;5057200;28;20304;-63
2023/03/09 02:32:25;;;;;;;23.73;15.83;;;1.70;99.90;;;;;;5057233;28;20514;-63
2023/03/09 02:34:50;;;;;;;23.87;16.10;;;1.70;99.90;;;;;;5055591;28;20293;-64
2023/03/09 02:37:27;;;;;;;24.37;16.97;;;1.90;99.90;;;;;;5057166;28;20200;-66
2023/03/09 02:39:56;;;;;;;28.07;17.17;;;1.80;99.90;;;;;;5057146;28;20282;-65
2023/03/09 02:42:23;;;;;;;24.83;15.47;;;1.60;99.90;;;;;;5056952;28;20204;-63
2023/03/09 02:44:49;;;;;;;22.37;15.53;;;1.60;99.90;;;;;;5057139;28;20237;-66
2023/03/09 02:47:19;;;;;;;26.53;16.97;;;1.60;99.90;;;;;;5056940;28;20195;-62
2023/03/09 02:49:44;;;;;;;23.43;15.97;;;1.60;99.90;;;;;;5057408;28;20738;-64
2023/03/09 02:52:10;;;;;;;25.47;17.77;;;1.60;99.90;;;;;;5054419;28;20287;-63
2023/03/09 02:54:35;;;;;;;27.67;18.60;;;1.70;99.90;;;;;;5056978;28;20197;-63
2023/03/09 02:57:02;;;;;;;25.90;17.00;;;1.60;99.90;;;;;;5056700;28;20247;-65
2023/03/09 02:59:27;;;;;;;29.53;18.07;;;1.60;99.90;;;;;;5057072;28;20644;-66
2023/03/09 03:01:53;;;;;;;32.00;17.70;;;1.60;99.90;;;;;;5056179;28;20201;-64
2023/03/09 03:04:18;;;;;;;23.43;15.27;;;1.60;99.90;;;;;;5056439;28;20609;-66
2023/03/09 03:06:44;;;;;;;27.40;17.40;;;1.70;99.90;;;;;;5054408;28;20240;-65
2023/03/09 03:09:10;;;;;;;27.23;17.80;;;1.70;99.90;;;;;;5056429;28;20274;-67
2023/03/09 03:11:35;;;;;;;23.40;16.33;;;1.70;99.90;;;;;;5056651;28;20287;-64
2023/03/09 03:14:01;;;;;;;26.37;16.67;;;1.60;99.90;;;;;;5056544;28;20237;-64
2023/03/09 03:16:26;;;;;;;24.70;16.90;;;1.60;99.90;;;;;;5056312;28;20196;-64
2023/03/09 03:18:52;;;;;;;22.47;15.27;;;1.60;99.90;;;;;;5054745;28;20228;-64
2023/03/09 03:21:18;;;;;;;27.70;16.80;;;1.50;99.90;;;;;;5056355;28;20607;-65
2023/03/09 03:23:43;;;;;;;24.23;16.70;;;1.40;99.90;;;;;;5056298;28;20236;-65
2023/03/09 03:26:10;;;;;;;25.37;16.60;;;1.40;99.90;;;;;;5056319;28;20201;-64
2023/03/09 03:28:36;;;;;;;28.07;17.50;;;1.40;99.90;;;;;;5056744;28;20188;-64
2023/03/09 03:31:02;;;;;;;29.67;15.93;;;1.30;99.90;;;;;;5057308;28;20220;-66
2023/03/09 03:33:28;;;;;;;24.63;16.10;;;1.30;99.90;;;;;;5052949;28;20201;-66
2023/03/09 03:35:53;;;;;;;21.30;14.03;;;1.30;99.90;;;;;;5056937;28;20330;-64
2023/03/09 03:38:19;;;;;;;21.20;14.27;;;1.30;99.90;;;;;;5055663;28;20283;-65
2023/03/09 03:40:45;;;;;;;24.03;15.00;;;1.30;99.90;;;;;;5056613;28;20206;-65
2023/03/09 03:43:10;;;;;;;23.83;14.83;;;1.20;99.90;;;;;;5055995;28;20253;-67
2023/03/09 03:45:36;;;;;;;21.00;14.47;;;1.20;99.90;;;;;;5056418;28;20211;-64
2023/03/09 03:48:01;;;;;;;23.97;15.53;;;1.20;99.90;;;;;;5054353;28;20287;-65
2023/03/09 03:50:27;;;;;;;19.67;14.37;;;1.10;99.90;;;;;;5056258;28;20319;-65
2023/03/09 03:52:52;;;;;;;21.90;13.87;;;1.10;99.90;;;;;;5056131;28;20625;-65
2023/03/09 03:55:18;;;;;;;23.17;15.33;;;1.10;99.90;;;;;;5056271;28;20202;-64
2023/03/09 03:57:46;;;;;;;20.10;14.30;;;1.10;99.90;;;;;;5056648;28;20336;-64
2023/03/09 04:00:12;;;;;;;22.17;13.93;;;1.10;99.90;;;;;;5054159;28;20902;-63
2023/03/09 04:02:38;;;;;;;19.93;14.20;;;1.00;99.90;;;;;;5055261;28;20303;-66
2023/03/09 04:05:05;;;;;;;22.70;13.63;;;1.00;99.90;;;;;;5055868;28;20674;-63
2023/03/09 04:07:31;;;;;;;21.27;14.17;;;1.10;99.90;;;;;;5056591;28;20195;-65
2023/03/09 04:09:56;;;;;;;20.37;14.43;;;1.10;99.90;;;;;;5054141;28;20269;-67
2023/03/09 04:12:22;;;;;;;20.33;13.17;;;1.00;99.90;;;;;;5058184;28;20222;-65
2023/03/09 04:14:48;;;;;;;19.77;13.87;;;1.00;99.90;;;;;;5059086;28;20985;-64
2023/03/09 04:17:13;;;;;;;22.37;15.00;;;0.90;99.90;;;;;;5060093;28;20203;-64
2023/03/09 04:19:39;;;;;;;20.17;15.07;;;1.00;99.90;;;;;;5060332;28;20215;-64
2023/03/09 04:22:06;;;;;;;20.83;14.20;;;1.00;99.90;;;;;;5059750;28;20724;-65
2023/03/09 04:24:32;;;;;;;22.03;15.73;;;1.00;99.90;;;;;;5057829;28;20715;-64
2023/03/09 04:26:58;;;;;;;21.43;13.43;;;1.00;99.90;;;;;;5059667;28;20240;-64
2023/03/09 04:29:24;;;;;;;20.40;15.03;;;1.00;99.90;;;;;;5059695;28;20220;-63
2023/03/09 04:31:49;;;;;;;24.63;16.17;;;1.00;99.90;;;;;;5059992;28;20323;-64
2023/03/09 04:34:15;;;;;;;21.13;13.93;;;1.00;99.90;;;;;;5059785;28;20204;-67
2023/03/09 04:36:41;;;;;;;26.20;15.17;;;1.00;99.90;;;;;;5059452;28;20212;-63
2023/03/09 04:39:08;;;;;;;21.40;15.23;;;1.00;99.90;;;;;;5057713;28;20207;-65
2023/03/09 04:41:34;;;;;;;23.07;15.13;;;1.00;99.90;;;;;;5059846;28;20208;-64
2023/03/09 04:44:00;;;;;;;20.40;14.77;;;1.00;99.90;;;;;;5059595;28;20570;-63
2023/03/09 04:46:25;;;;;;;28.53;18.17;;;1.00;99.90;;;;;;5059606;28;20201;-64
2023/03/09 04:48:51;;;;;;;21.20;15.40;;;1.00;99.90;;;;;;5059492;28;20674;-65
2023/03/09 04:51:16;;;;;;;23.37;15.83;;;1.00;99.90;;;;;;5057336;28;20218;-64
2023/03/09 04:53:42;;;;;;;25.97;16.47;;;1.00;99.90;;;;;;5059828;28;20208;-63
2023/03/09 04:56:08;;;;;;;24.07;17.07;;;1.00;99.90;;;;;;5059134;28;20284;-63
2023/03/09 04:58:33;;;;;;;31.60;18.07;;;1.10;99.90;;;;;;5058982;28;21137;-67
2023/03/09 05:01:00;;;;;;;25.27;17.20;;;1.10;99.90;;;;;;5059009;28;20717;-64
2023/03/09 05:03:27;;;;;;;23.23;16.27;;;1.20;99.90;;;;;;5057356;28;20205;-65
2023/03/09 05:05:52;;;;;;;26.10;15.80;;;1.20;99.90;;;;;;5059450;28;20262;-66
2023/03/09 05:08:18;;;;;;;24.00;16.57;;;1.20;99.90;;;;;;5059067;28;20668;-64
2023/03/09 05:10:43;;;;;;;26.10;18.30;;;1.20;99.90;;;;;;5058995;28;20352;-66
2023/03/09 05:13:09;;;;;;;24.53;16.37;;;1.20;99.90;;;;;;5058666;28;20202;-64
2023/03/09 05:15:38;;;;;;;24.03;17.50;;;1.20;99.90;;;;;;5056749;28;20331;-65
2023/03/09 05:18:03;;;;;;;26.57;18.50;;;1.20;99.90;;;;;;5058787;28;20204;-66
2023/03/09 05:20:29;;;;;;;24.50;17.57;;;1.20;99.90;;;;;;5058562;28;20250;-64
2023/03/09 05:22:54;;;;;;;28.67;18.70;;;1.10;99.90;;;;;;5058172;28;20678;-63
2023/03/09 05:25:22;;;;;;;24.33;17.17;;;1.10;99.90;;;;;;5058306;28;20212;-62
2023/03/09 05:27:47;;;;;;;27.33;18.63;;;1.10;99.90;;;;;;5056765;28;20231;-64
2023/03/09 05:30:13;;;;;;;26.43;18.80;;;1.10;99.90;;;;;;5058094;28;20701;-66
2023/03/09 05:32:39;;;;;;;27.33;17.83;;;1.10;99.90;;;;;;5058585;28;20295;-64
2023/03/09 05:35:05;;;;;;;24.67;18.23;;;1.10;99.90;;;;;;5058508;28;20212;-64
2023/03/09 05:37:32;;;;;;;26.17;17.87;;;1.10;99.90;;;;;;5058284;28;20663;-63
2023/03/09 05:39:58;;;;;;;26.70;17.60;;;1.10;99.90;;;;;;5057942;28;20254;-64
2023/03/09 05:42:23;;;;;;;26.10;18.47;;;1.00;99.90;;;;;;5057720;28;20690;-64
2023/03/09 05:44:49;;;;;;;25.20;17.07;;;1.10;99.90;;;;;;5058335;28;20212;-64
2023/03/09 05:47:15;;;;;;;23.00;16.93;;;1.10;99.90;;;;;;5058313;28;20266;-64
2023/03/09 05:49:40;;;;;;;22.13;17.73;;;1.10;99.90;;;;;;5058165;28;20688;-64
2023/03/09 05:52:06;;;;;;;23.63;17.60;;;1.10;99.90;;;;;;5058173;28;20225;-65
2023/03/09 05:54:32;;;;;;;23.17;16.40;;;1.10;99.90;;;;;;5056148;28;20210;-68
2023/03/09 05:56:57;;;;;;;22.60;16.37;;;1.10;99.90;;;;;;5058194;28;20978;-64
2023/03/09 05:59:23;;;;;;;26.40;17.70;;;1.10;99.90;;;;;;5057912;28;20191;-65
2023/03/09 06:01:48;;;;;;;22.87;15.63;;;1.00;99.90;;;;;;5057801;28;20199;-64
2023/03/09 06:04:14;;;;;;;23.53;16.97;;;1.00;99.90;;;;;;5055717;28;20198;-65
2023/03/09 06:06:40;;;;;;;23.13;16.23;;;1.10;99.90;;;;;;5058077;28;20216;-63
2023/03/09 06:09:05;;;;;;;25.53;16.70;;;1.10;99.90;;;;;;5057825;28;20752;-62
2023/03/09 06:11:31;;;;;;;24.27;17.50;;;1.10;99.90;;;;;;5057478;28;20189;-64
2023/03/09 06:13:57;;;;;;;22.83;16.30;;;1.20;99.90;;;;;;5057666;28;20234;-65
2023/03/09 06:16:24;;;;;;;25.03;15.80;;;1.10;99.90;;;;;;5057308;28;20558;-66
2023/03/09 06:18:50;;;;;;;23.67;15.17;;;1.10;99.90;;;;;;5052888;28;20240;-64
2023/03/09 06:21:16;;;;;;;22.57;14.93;;;1.10;99.90;;;;;;5057073;28;20233;-63
2023/03/09 06:23:41;;;;;;;24.33;16.33;;;1.20;99.90;;;;;;5057103;28;20694;-63
2023/03/09 06:26:10;;;;;;;24.37;17.43;;;1.10;99.90;;;;;;5057202;28;20304;-64
2023/03/09 06:28:36;;;;;;;22.57;15.30;;;1.20;99.90;;;;;;5057089;28;20333;-66
2023/03/09 06:31:06;;;;;;;23.63;16.30;;;1.10;99.90;;;;;;5054963;28;20229;-64
2023/03/09 06:33:32;;;;;;;21.67;14.57;;;1.10;99.90;;;;;;5056912;28;20885;-65
2023/03/09 06:36:00;;;;;;;21.43;15.33;;;1.20;99.90;;;;;;5056544;28;20205;-65
2023/03/09 06:38:25;;;;;;;32.87;21.53;;;1.20;99.90;;;;;;5057076;28;20201;-65
2023/03/09 06:40:55;;;;;;;21.03;16.07;;;1.20;99.90;;;;;;5055064;28;20213;-65
2023/03/09 06:43:20;;;;;;;18.50;14.40;;;1.20;99.90;;;;;;5056586;28;20196;-65
2023/03/09 06:45:46;;;;;;;19.90;14.70;;;1.30;99.90;;;;;;5057062;28;20208;-67
2023/03/09 06:48:12;;;;;;;17.70;14.97;;;1.20;99.90;;;;;;5056642;28;20207;-65
2023/03/09 06:50:37;;;;;;;17.63;13.57;;;1.20;99.90;;;;;;5054698;28;20663;-64
2023/03/09 06:53:03;;;;;;;18.53;15.07;;;1.40;99.90;;;;;;5057049;28;20198;-64
2023/03/09 06:55:28;;;;;;;21.47;15.27;;;1.40;99.90;;;;;;5056918;28;20197;-63
2023/03/09 06:57:54;;;;;;;17.73;13.47;;;1.50;99.90;;;;;;5056587;28;20315;-65
2023/03/09 07:00:20;;;;;;;16.77;13.07;;;1.50;99.90;;;;;;5056333;28;20593;-64
2023/03/09 07:02:46;;;;;;;23.37;14.77;;;1.60;99.90;;;;;;5055088;28;20200;-64
2023/03/09 07:05:12;;;;;;;20.63;14.57;;;1.60;99.90;;;;;;5056583;28;20541;-63
2023/03/09 07:07:39;;;;;;;17.27;13.73;;;1.50;99.90;;;;;;5056423;28;20233;-63
2023/03/09 07:10:05;;;;;;;19.67;14.70;;;1.40;99.90;;;;;;5056622;28;20893;-63
2023/03/09 07:12:31;;;;;;;19.67;13.77;;;1.40;99.90;;;;;;5054238;28;20226;-63
2023/03/09 07:14:56;;;;;;;17.90;13.80;;;1.40;99.90;;;;;;5056780;28;20236;-63
2023/03/09 07:17:22;;;;;;;17.03;13.00;;;1.30;99.90;;;;;;5056051;28;20281;-63
2023/03/09 07:19:47;;;;;;;18.90;12.47;;;1.40;99.90;;;;;;5056096;28;21020;-66
2023/03/09 07:22:13;;;;;;;15.23;12.47;;;1.40;99.90;;;;;;5055715;28;20201;-63
2023/03/09 07:24:38;;;;;;;17.27;13.17;;;1.50;99.90;;;;;;5055546;28;20731;-64
2023/03/09 07:27:05;;;;;;;19.17;13.80;;;1.60;99.90;;;;;;5055309;28;20640;-63
2023/03/09 07:29:31;;;;;;;17.20;12.93;;;1.70;99.90;;;;;;5055681;28;20212;-62
2023/03/09 07:31:56;;;;;;;18.50;13.43;;;1.80;99.90;;;;;;5056027;28;20192;-64
2023/03/09 07:34:22;;;;;;;17.70;13.03;;;1.80;99.90;;;;;;5055625;28;20196;-63
2023/03/09 07:36:48;;;;;;;17.40;13.20;;;1.80;99.90;;;;;;5053727;28;20247;-64
2023/03/09 07:39:16;;;;;;;18.07;13.93;;;1.90;99.90;;;;;;5055618;28;20258;-65
2023/03/09 07:41:42;;;;;;;17.27;12.83;;;2.00;99.90;;;;;;5055699;28;20597;-64
2023/03/09 07:44:07;;;;;;;16.43;12.40;;;2.10;99.90;;;;;;5056002;28;20208;-64
2023/03/09 07:46:33;;;;;;;16.83;12.70;;;2.00;99.90;;;;;;5055475;28;20292;-65
2023/03/09 07:48:59;;;;;;;16.57;12.03;;;2.00;99.90;;;;;;5051847;28;20203;-63
2023/03/09 07:51:24;;;;;;;13.53;11.80;;;1.90;99.90;;;;;;5055575;28;20201;-63
2023/03/09 07:53:50;;;;;;;17.33;12.40;;;2.00;99.90;;;;;;5055868;28;20217;-62
2023/03/09 07:56:16;;;;;;;13.63;12.20;;;2.00;99.90;;;;;;5055616;28;21119;-63
2023/03/09 07:58:41;;;;;;;15.20;11.97;;;2.20;99.90;;;;;;5055565;28;20225;-63
2023/03/09 08:01:16;;;;;;;12.30;10.83;;;2.30;99.90;;;;;;5054949;28;20619;-63
2023/03/09 08:03:42;;;;;;;16.23;12.57;;;2.40;99.90;;;;;;5051542;28;20697;-64
2023/03/09 08:06:09;;;;;;;17.73;12.83;;;2.40;99.90;;;;;;5055005;28;20882;-63
2023/03/09 08:08:36;;;;;;;13.07;11.17;;;2.40;99.90;;;;;;5055472;28;20209;-63
2023/03/09 08:11:03;;;;;;;14.43;11.63;;;2.40;99.90;;;;;;5053412;28;20239;-65
2023/03/09 08:13:29;;;;;;;17.47;12.70;;;2.30;99.90;;;;;;5055416;28;20201;-62
2023/03/09 08:15:54;;;;;;;18.40;12.70;;;2.10;99.90;;;;;;5055367;28;20254;-62
2023/03/09 08:18:20;;;;;;;19.50;13.70;;;2.10;99.90;;;;;;5055283;28;20193;-63
2023/03/09 08:20:46;;;;;;;17.50;14.30;;;2.00;99.90;;;;;;5054940;28;20279;-63
2023/03/09 08:23:12;;;;;;;17.90;14.10;;;2.20;99.90;;;;;;5052913;28;20237;-63
2023/03/09 08:25:38;;;;;;;16.97;13.30;;;2.40;99.90;;;;;;5055321;28;20730;-63
2023/03/09 08:28:04;;;;;;;20.87;13.43;;;2.50;99.90;;;;;;5055457;28;20193;-63
2023/03/09 08:30:30;;;;;;;20.27;12.80;;;2.60;99.90;;;;;;5055122;28;20569;-63
2023/03/09 08:32:56;;;;;;;18.83;12.70;;;2.60;99.90;;;;;;5037359;28;20302;-63
2023/03/09 08:35:27;;;;;;;16.63;12.63;;;2.60;99.90;;;;;;5053164;28;20198;-63
2023/03/09 08:37:52;;;;;;;14.40;12.17;;;2.60;99.90;;;;;;5054987;28;20854;-63
2023/03/09 08:40:18;;;;;;;14.43;11.50;;;2.60;99.90;;;;;;5055038;28;20292;-63
2023/03/09 08:42:43;;;;;;;17.53;12.00;;;2.70;99.90;;;;;;5055070;28;20918;-64
2023/03/09 08:45:10;;;;;;;15.77;12.27;;;2.60;99.90;;;;;;5053300;28;20427;-63
2023/03/09 08:47:36;;;;;;;17.60;14.57;;;2.70;99.90;;;;;;5050813;28;20339;-63
2023/03/09 08:50:03;;;;;;;16.10;12.97;;;2.70;99.90;;;;;;5054856;28;20770;-64
2023/03/09 08:52:34;;;;;;;15.70;12.67;;;2.60;99.90;;;;;;5055353;28;20532;-63
2023/03/09 08:55:04;;;;;;;15.40;12.57;;;2.60;99.90;;;;;;5055541;28;20230;-63
2023/03/09 08:57:29;;;;;;;16.87;13.80;;;2.70;99.90;;;;;;5049965;28;20330;-63
2023/03/09 08:59:55;;;;;;;16.47;13.40;;;2.70;99.90;;;;;;5039634;28;20610;-64
2023/03/09 09:02:21;;;;;;;15.77;13.23;;;2.70;99.90;;;;;;5058785;28;20209;-64
2023/03/09 09:04:47;;;;;;;16.70;12.97;;;2.60;99.90;;;;;;5058577;28;20789;-62
2023/03/09 09:07:14;;;;;;;14.93;12.30;;;2.60;99.90;;;;;;5056049;28;20271;-65
2023/03/09 09:09:40;;;;;;;16.50;13.80;;;2.50;99.90;;;;;;5058934;28;20222;-64
2023/03/09 09:12:07;;;;;;;17.70;14.80;;;2.50;99.90;;;;;;5058391;28;20281;-63
2023/03/09 09:14:33;;;;;;;20.37;14.73;;;2.60;99.90;;;;;;5058527;28;20197;-62
2023/03/09 09:17:00;;;;;;;22.83;15.57;;;2.50;99.90;;;;;;5059249;28;20239;-65
2023/03/09 09:19:26;;;;;;;25.70;16.73;;;2.40;99.90;;;;;;5056808;28;20619;-63
2023/03/09 09:21:52;;;;;;;18.60;15.37;;;2.40;99.90;;;;;;5058214;28;20232;-68
2023/03/09 09:24:18;;;;;;;18.37;15.47;;;2.40;99.90;;;;;;5058249;28;20220;-65
2023/03/09 09:26:44;;;;;;;20.83;15.97;;;2.40;99.90;;;;;;5058279;28;20232;-64
2023/03/09 09:29:10;;;;;;;21.40;17.13;;;2.40;99.90;;;;;;5057745;28;20214;-63
2023/03/09 09:31:36;;;;;;;19.17;15.93;;;2.50;99.90;;;;;;5055887;28;20206;-64
2023/03/09 09:34:01;;;;;;;19.90;15.17;;;2.60;99.90;;;;;;5058418;28;20607;-63
2023/03/09 09:36:27;;;;;;;23.77;16.57;;;2.70;99.90;;;;;;5054517;28;20291;-63
2023/03/09 09:38:53;;;;;;;28.03;17.00;;;2.70;99.90;;;;;;5057666;28;20202;-67
2023/03/09 09:41:44;;;;;;;23.83;17.90;;;2.60;99.90;;;;;;5056952;28;20288;-65
2023/03/09 09:44:15;;;;;;;18.73;16.17;;;2.60;99.90;;;;;;5056041;28;20563;-65
2023/03/09 09:46:41;;;;;;;19.43;16.87;;;2.70;99.90;;;;;;5055111;28;20196;-67
2023/03/09 09:49:21;;;;;;;20.90;16.37;;;2.70;99.90;;;;;;5057605;28;20439;-63
2023/03/09 09:52:01;;;;;;;19.60;16.20;;;2.60;99.90;;;;;;5056373;28;20655;-64
2023/03/09 09:54:39;;;;;;;20.57;16.07;;;2.70;99.90;;;;;;5055560;28;20209;-64
2023/03/09 09:57:14;;;;;;;19.57;15.97;;;2.80;99.90;;;;;;5054673;28;21041;-64
2023/03/09 10:00:00;;;;;;;23.40;16.43;;;2.90;99.90;;;;;;5056950;28;20259;-65
2023/03/09 10:02:49;;;;;;;27.67;17.87;;;2.90;99.90;;;;;;5056656;28;20210;-62
2023/03/09 10:05:33;;;;;;;21.20;16.37;;;2.80;99.90;;;;;;5054427;28;20280;-64
2023/03/09 10:08:09;;;;;;;22.23;16.63;;;2.80;99.90;;;;;;5055991;28;20572;-64
2023/03/09 10:10:35;;;;;;;17.07;15.13;;;2.80;99.90;;;;;;5056970;28;20209;-63
2023/03/09 10:13:09;;;;;;;18.93;15.17;;;2.80;99.90;;;;;;5057451;28;20207;-64
2023/03/09 10:15:38;;;;;;;20.90;16.90;;;2.70;99.90;;;;;;5054742;28;20206;-65
2023/03/09 10:18:08;;;;;;;23.17;17.60;;;2.70;99.90;;;;;;5056855;28;20774;-64
2023/03/09 10:20:43;;;;;;;20.80;15.93;;;2.70;99.90;;;;;;5056328;28;20954;-65
2023/03/09 10:23:29;;;;;;;20.53;16.60;;;2.70;99.90;;;;;;5055535;28;20217;-64
2023/03/09 10:26:22;;;;;;;18.40;14.83;;;2.90;99.90;;;;;;5056070;28;20297;-64
2023/03/09 10:28:51;;;;;;;18.83;15.53;;;2.90;99.90;;;;;;5054384;28;20232;-65
2023/03/09 10:32:04;;;;;;;19.23;16.00;;;3.00;99.90;;;;;;5054522;28;20213;-64
2023/03/09 10:34:39;;;;;;;17.97;14.97;;;3.20;99.90;;;;;;4974868;28;20639;-65
2023/03/09 10:37:19;;;;;;;17.93;14.77;;;3.10;99.90;;;;;;4970301;28;20635;-64
2023/03/09 10:39:46;;;;;;;20.37;15.23;;;3.10;99.90;;;;;;5024529;28;20220;-63
2023/03/09 10:42:26;;;;;;;18.20;15.53;;;3.10;99.90;;;;;;5056206;28;20206;-63
2023/03/09 10:45:12;;;;;;;18.57;15.73;;;3.00;99.90;;;;;;5056013;28;20375;-63
2023/03/09 10:47:46;;;;;;;20.50;15.43;;;3.00;99.90;;;;;;5053188;28;20267;-65
2023/03/09 10:50:13;;;;;;;21.67;15.83;;;3.00;99.90;;;;;;5061669;28;20205;-64
2023/03/09 10:52:38;;;;;;;23.30;18.30;;;3.00;99.90;;;;;;5063612;28;20227;-64
2023/03/09 10:55:23;;;;;;;17.20;14.77;;;3.00;99.90;;;;;;5051216;28;20248;-65
2023/03/09 10:58:00;;;;;;;18.50;16.23;;;2.90;99.90;;;;;;5051618;28;20231;-69
2023/03/09 11:00:27;;;;;;;21.33;17.10;;;2.90;99.90;;;;;;5056594;28;20849;-65
2023/03/09 11:02:59;;;;;;;20.23;16.73;;;2.90;99.90;;;;;;5056737;28;20194;-65
2023/03/09 11:05:30;;;;;;;19.77;15.40;;;2.90;99.90;;;;;;5054331;28;20539;-66
2023/03/09 11:08:07;;;;;;;21.27;16.43;;;2.90;99.90;;;;;;5056053;28;20747;-68
2023/03/09 11:10:34;;;;;;;20.53;17.23;;;2.90;99.90;;;;;;5056041;28;20631;-66
2023/03/09 11:13:01;;;;;;;21.07;16.43;;;2.80;99.90;;;;;;5053919;28;20984;-67
2023/03/09 11:15:35;;;;;;;19.83;16.83;;;2.90;99.90;;;;;;5055919;28;20239;-68
2023/03/09 11:18:02;;;;;;;22.10;18.30;;;2.90;99.90;;;;;;5056120;28;20280;-67
2023/03/09 11:20:36;;;;;;;24.00;18.07;;;3.00;99.90;;;;;;5055718;28;20305;-67
2023/03/09 11:23:22;;;;;;;19.00;15.33;;;2.90;99.90;;;;;;5055583;28;20591;-69
2023/03/09 11:26:03;;;;;;;25.50;17.57;;;3.00;99.90;;;;;;5054257;28;20461;-67
2023/03/09 11:29:06;;;;;;;22.17;16.80;;;3.00;99.90;;;;;;5055418;28;20209;-73
2023/03/09 11:31:42;;;;;;;23.90;17.63;;;2.90;99.90;;;;;;5052195;28;20339;-65
2023/03/09 11:34:15;;;;;;;20.80;17.23;;;2.90;99.90;;;;;;5051952;28;20195;-65
2023/03/09 11:36:52;;;;;;;19.47;17.07;;;2.80;99.90;;;;;;5052924;28;20213;-66
2023/03/09 11:39:53;;;;;;;21.90;17.10;;;2.90;99.90;;;;;;5051337;28;20190;-66
2023/03/09 11:42:41;;;;;;;25.73;18.37;;;2.80;99.90;;;;;;5051574;28;20752;-66
2023/03/09 11:45:23;;;;;;;23.13;17.60;;;2.80;99.90;;;;;;5053636;28;20766;-67
2023/03/09 11:48:01;;;;;;;26.17;18.03;;;2.90;99.90;;;;;;5052727;28;20208;-66
2023/03/09 11:50:33;;;;;;;23.03;17.60;;;2.90;99.90;;;;;;5053176;28;20511;-67
2023/03/09 11:53:03;;;;;;;28.63;18.27;;;2.90;99.90;;;;;;5050292;28;20292;-66
2023/03/09 11:55:35;;;;;;;22.07;16.70;;;2.80;99.90;;;;;;5052458;28;20234;-65
2023/03/09 11:58:05;;;;;;;24.67;18.00;;;2.80;99.90;;;;;;5052348;28;20217;-65
2023/03/09 12:00:34;;;;;;;24.53;18.50;;;2.80;99.90;;;;;;5054488;28;20216;-66
2023/03/09 12:03:11;;;;;;;22.93;19.03;;;2.80;99.90;;;;;;5053546;28;20229;-66
2023/03/09 12:05:42;;;;;;;25.57;19.17;;;2.80;99.90;;;;;;5051388;28;20205;-67
2023/03/09 12:08:17;;;;;;;24.13;20.33;;;2.70;99.90;;;;;;5048594;28;20209;-66
2023/03/09 12:10:54;;;;;;;22.83;18.73;;;2.90;99.90;;;;;;5053203;28;20201;-66
2023/03/09 12:13:47;;;;;;;23.60;18.33;;;2.90;99.90;;;;;;5052805;28;20283;-66
2023/03/09 12:16:21;;;;;;;24.93;19.47;;;3.00;99.90;;;;;;5047746;28;20564;-67
2023/03/09 12:19:16;;;;;;;21.47;17.50;;;3.00;99.90;;;;;;5055094;28;20266;-67
2023/03/09 12:21:57;;;;;;;24.47;18.63;;;3.00;99.90;;;;;;5053829;28;20194;-67
2023/03/09 12:24:55;;;;;;;25.97;18.97;;;3.10;99.90;;;;;;5053325;28;20236;-66
2023/03/09 12:27:23;;;;;;;23.43;18.93;;;3.00;99.90;;;;;;5034994;28;20218;-66
2023/03/09 12:30:08;;;;;;;25.53;18.60;;;3.10;99.90;;;;;;5054086;28;20213;-67
2023/03/09 12:32:37;;;;;;;29.13;19.30;;;3.30;99.90;;;;;;5053676;28;20937;-67
2023/03/09 12:35:31;;;;;;;26.03;19.67;;;3.30;99.90;;;;;;5054956;28;20832;-67
2023/03/09 12:38:01;;;;;;;23.47;19.30;;;3.20;99.90;;;;;;5042536;28;20201;-64
2023/03/09 12:40:27;;;;;;;23.43;18.63;;;3.20;99.90;;;;;;5053334;28;20202;-65
2023/03/09 12:43:18;;;;;;;25.13;18.90;;;3.30;99.90;;;;;;5052091;28;20218;-67
2023/03/09 12:45:46;;;;;;;22.30;17.63;;;3.20;99.90;;;;;;5052456;28;20608;-66
2023/03/09 12:48:36;;;;;;;23.93;19.13;;;3.20;99.90;;;;;;5051433;28;20201;-65